sensor_id;sensor_type;location;lat;lon;timestamp;pressure;altitude;pressure_sealevel;temperature;humidity
33191;BME280;19554;42.652;23.364;2022-10-12T00:00:06;95201.84;;;14.86;72.60
33191;BME280;19554;42.652;23.364;2022-10-12T00:02:32;95211.59;;;14.96;72.42
33191;BME280;19554;42.652;23.364;2022-10-12T00:04:57;95209.22;;;14.95;72.24
33191;BME280;19554;42.652;23.364;2022-10-12T00:07:22;95210.59;;;15.06;71.69
33191;BME280;19554;42.652;23.364;2022-10-12T00:09:48;95192.78;;;14.96;71.44
33191;BME280;19554;42.652;23.364;2022-10-12T00:12:13;95192.88;;;14.91;71.40
33191;BME280;19554;42.652;23.364;2022-10-12T00:14:39;95201.03;;;15.00;71.47
33191;BME280;19554;42.652;23.364;2022-10-12T00:17:04;95197.06;;;14.83;71.75
33191;BME280;19554;42.652;23.364;2022-10-12T00:19:29;95197.69;;;14.80;72.18
33191;BME280;19554;42.652;23.364;2022-10-12T00:21:55;95200.84;;;14.82;72.03
33191;BME280;19554;42.652;23.364;2022-10-12T00:24:20;95142.50;;;14.41;72.08
33191;BME280;19554;42.652;23.364;2022-10-12T00:26:49;95183.94;;;14.68;72.25
33191;BME280;19554;42.652;23.364;2022-10-12T00:29:14;95192.06;;;14.63;72.77
33191;BME280;19554;42.652;23.364;2022-10-12T00:31:39;95193.50;;;14.60;72.85
33191;BME280;19554;42.652;23.364;2022-10-12T00:34:05;95195.88;;;14.62;72.94
33191;BME280;19554;42.652;23.364;2022-10-12T00:36:33;95189.91;;;14.51;73.22
33191;BME280;19554;42.652;23.364;2022-10-12T00:39:01;95196.72;;;14.43;73.79
33191;BME280;19554;42.652;23.364;2022-10-12T00:41:31;95182.69;;;14.33;74.29
33191;BME280;19554;42.652;23.364;2022-10-12T00:43:57;95192.41;;;14.29;74.94
33191;BME280;19554;42.652;23.364;2022-10-12T00:46:41;95199.78;;;14.23;75.31
33191;BME280;19554;42.652;23.364;2022-10-12T00:49:12;95196.00;;;14.24;75.33
33191;BME280;19554;42.652;23.364;2022-10-12T00:51:40;95167.31;;;13.92;76.07
33191;BME280;19554;42.652;23.364;2022-10-12T00:54:11;95179.25;;;13.99;76.54
33191;BME280;19554;42.652;23.364;2022-10-12T00:56:39;95182.00;;;13.94;76.78
33191;BME280;19554;42.652;23.364;2022-10-12T00:59:10;95193.34;;;13.91;77.00
33191;BME280;19554;42.652;23.364;2022-10-12T01:01:37;95177.84;;;13.88;77.07
33191;BME280;19554;42.652;23.364;2022-10-12T01:04:04;95183.97;;;13.75;77.40
33191;BME280;19554;42.652;23.364;2022-10-12T01:06:30;95175.75;;;13.66;77.95
33191;BME280;19554;42.652;23.364;2022-10-12T01:08:56;95185.13;;;13.69;77.90
33191;BME280;19554;42.652;23.364;2022-10-12T01:11:22;95176.50;;;13.53;78.42
33191;BME280;19554;42.652;23.364;2022-10-12T01:13:47;95132.53;;;13.35;78.01
33191;BME280;19554;42.652;23.364;2022-10-12T01:16:25;95134.63;;;13.38;77.74
33191;BME280;19554;42.652;23.364;2022-10-12T01:19:17;95182.19;;;13.84;77.21
33191;BME280;19554;42.652;23.364;2022-10-12T01:21:57;95164.25;;;13.66;77.19
33191;BME280;19554;42.652;23.364;2022-10-12T01:27:26;95185.59;;;13.90;76.71
33191;BME280;19554;42.652;23.364;2022-10-12T01:30:04;95193.13;;;13.88;76.89
33191;BME280;19554;42.652;23.364;2022-10-12T01:33:10;95180.31;;;13.85;76.71
33191;BME280;19554;42.652;23.364;2022-10-12T01:35:55;95187.38;;;13.94;76.46
33191;BME280;19554;42.652;23.364;2022-10-12T01:41:13;95184.41;;;13.96;76.08
33191;BME280;19554;42.652;23.364;2022-10-12T01:43:41;95145.81;;;13.78;75.71
33191;BME280;19554;42.652;23.364;2022-10-12T01:48:47;95182.75;;;14.14;75.20
33191;BME280;19554;42.652;23.364;2022-10-12T01:51:23;95188.63;;;14.16;74.98
33191;BME280;19554;42.652;23.364;2022-10-12T02:00:08;95192.41;;;14.15;74.47
33191;BME280;19554;42.652;23.364;2022-10-12T02:07:41;95191.56;;;14.01;75.48
33191;BME280;19554;42.652;23.364;2022-10-12T02:10:20;95191.88;;;13.99;75.36
33191;BME280;19554;42.652;23.364;2022-10-12T02:12:48;95099.69;;;13.43;75.03
33191;BME280;19554;42.652;23.364;2022-10-12T02:15:15;95196.28;;;14.09;75.01
33191;BME280;19554;42.652;23.364;2022-10-12T02:17:45;95201.97;;;14.21;74.41
33191;BME280;19554;42.652;23.364;2022-10-12T02:20:14;95206.22;;;14.22;73.97
33191;BME280;19554;42.652;23.364;2022-10-12T02:22:44;95133.06;;;13.70;73.96
33191;BME280;19554;42.652;23.364;2022-10-12T02:25:14;95171.59;;;14.07;73.85
33191;BME280;19554;42.652;23.364;2022-10-12T02:27:43;95212.13;;;14.38;73.46
33191;BME280;19554;42.652;23.364;2022-10-12T02:30:11;95208.97;;;14.50;72.81
33191;BME280;19554;42.652;23.364;2022-10-12T02:32:58;95202.63;;;14.59;72.34
33191;BME280;19554;42.652;23.364;2022-10-12T02:35:42;95213.19;;;14.69;71.80
33191;BME280;19554;42.652;23.364;2022-10-12T02:38:21;95202.75;;;14.68;71.34
33191;BME280;19554;42.652;23.364;2022-10-12T02:40:54;95210.22;;;14.71;71.49
33191;BME280;19554;42.652;23.364;2022-10-12T02:43:49;95209.81;;;14.78;71.13
33191;BME280;19554;42.652;23.364;2022-10-12T02:46:18;95206.22;;;14.82;71.07
33191;BME280;19554;42.652;23.364;2022-10-12T02:48:45;95160.47;;;14.60;70.76
33191;BME280;19554;42.652;23.364;2022-10-12T02:51:12;95212.00;;;14.89;70.72
33191;BME280;19554;42.652;23.364;2022-10-12T02:53:39;95208.09;;;14.96;70.37
33191;BME280;19554;42.652;23.364;2022-10-12T02:56:09;95210.19;;;14.99;70.15
33191;BME280;19554;42.652;23.364;2022-10-12T02:58:34;95215.78;;;14.88;70.52
33191;BME280;19554;42.652;23.364;2022-10-12T03:01:00;95201.84;;;14.86;70.72
33191;BME280;19554;42.652;23.364;2022-10-12T03:03:25;95206.63;;;14.89;70.72
33191;BME280;19554;42.652;23.364;2022-10-12T03:05:50;95176.19;;;14.80;70.45
33191;BME280;19554;42.652;23.364;2022-10-12T03:08:16;95204.22;;;15.02;70.08
33191;BME280;19554;42.652;23.364;2022-10-12T03:10:41;95200.63;;;15.06;70.35
33191;BME280;19554;42.652;23.364;2022-10-12T03:13:06;95206.91;;;15.02;70.42
33191;BME280;19554;42.652;23.364;2022-10-12T03:15:32;95206.19;;;15.10;70.14
33191;BME280;19554;42.652;23.364;2022-10-12T03:17:57;95199.22;;;15.09;70.12
33191;BME280;19554;42.652;23.364;2022-10-12T03:20:22;95203.41;;;15.15;69.98
33191;BME280;19554;42.652;23.364;2022-10-12T03:22:48;95205.50;;;15.18;70.19
33191;BME280;19554;42.652;23.364;2022-10-12T03:25:14;95199.72;;;15.11;69.90
33191;BME280;19554;42.652;23.364;2022-10-12T03:27:40;95197.66;;;15.08;70.45
33191;BME280;19554;42.652;23.364;2022-10-12T03:30:05;95159.44;;;14.83;70.21
33191;BME280;19554;42.652;23.364;2022-10-12T03:32:31;95190.19;;;15.05;70.14
33191;BME280;19554;42.652;23.364;2022-10-12T03:34:57;95200.72;;;15.15;70.08
33191;BME280;19554;42.652;23.364;2022-10-12T03:37:22;95179.53;;;15.00;70.28
33191;BME280;19554;42.652;23.364;2022-10-12T03:39:47;95207.19;;;15.14;70.08
33191;BME280;19554;42.652;23.364;2022-10-12T03:42:13;95190.56;;;15.12;70.07
33191;BME280;19554;42.652;23.364;2022-10-12T03:44:38;95189.28;;;15.09;70.15
33191;BME280;19554;42.652;23.364;2022-10-12T03:47:03;95104.53;;;14.62;69.93
33191;BME280;19554;42.652;23.364;2022-10-12T03:49:29;95114.69;;;14.65;70.15
33191;BME280;19554;42.652;23.364;2022-10-12T03:51:54;95209.06;;;15.27;70.11
33191;BME280;19554;42.652;23.364;2022-10-12T03:54:20;95210.94;;;15.27;70.25
33191;BME280;19554;42.652;23.364;2022-10-12T03:56:45;95145.59;;;14.90;70.21
33191;BME280;19554;42.652;23.364;2022-10-12T03:59:10;95203.56;;;15.32;70.31
33191;BME280;19554;42.652;23.364;2022-10-12T04:01:36;95178.28;;;15.20;70.32
33191;BME280;19554;42.652;23.364;2022-10-12T04:04:01;95205.16;;;15.33;70.46
33191;BME280;19554;42.652;23.364;2022-10-12T04:06:27;95140.34;;;14.85;70.66
33191;BME280;19554;42.652;23.364;2022-10-12T04:08:52;95209.75;;;15.33;70.77
33191;BME280;19554;42.652;23.364;2022-10-12T04:11:17;95178.72;;;15.13;70.82
33191;BME280;19554;42.652;23.364;2022-10-12T04:13:44;95215.13;;;15.33;70.93
33191;BME280;19554;42.652;23.364;2022-10-12T04:16:10;95210.34;;;15.30;70.81
33191;BME280;19554;42.652;23.364;2022-10-12T04:18:35;95215.53;;;15.26;71.04
33191;BME280;19554;42.652;23.364;2022-10-12T04:21:01;95219.53;;;15.15;71.48
33191;BME280;19554;42.652;23.364;2022-10-12T04:23:29;95215.84;;;15.11;72.17
33191;BME280;19554;42.652;23.364;2022-10-12T04:25:55;95214.25;;;15.10;72.30
33191;BME280;19554;42.652;23.364;2022-10-12T04:28:20;95219.16;;;15.08;71.95
33191;BME280;19554;42.652;23.364;2022-10-12T04:30:46;95222.31;;;15.10;72.19
33191;BME280;19554;42.652;23.364;2022-10-12T04:33:11;95187.22;;;14.79;71.96
33191;BME280;19554;42.652;23.364;2022-10-12T04:35:36;95222.13;;;15.06;72.00
33191;BME280;19554;42.652;23.364;2022-10-12T04:38:02;95197.44;;;14.90;71.79
33191;BME280;19554;42.652;23.364;2022-10-12T04:40:28;95209.50;;;14.79;72.85
33191;BME280;19554;42.652;23.364;2022-10-12T04:42:53;95225.34;;;14.95;72.93
33191;BME280;19554;42.652;23.364;2022-10-12T04:45:20;95154.38;;;14.54;72.79
33191;BME280;19554;42.652;23.364;2022-10-12T04:47:46;95229.91;;;15.08;72.69
33191;BME280;19554;42.652;23.364;2022-10-12T04:50:11;95208.00;;;15.01;71.98
33191;BME280;19554;42.652;23.364;2022-10-12T04:52:37;95112.50;;;14.39;71.81
33191;BME280;19554;42.652;23.364;2022-10-12T04:55:02;95234.06;;;15.14;71.82
33191;BME280;19554;42.652;23.364;2022-10-12T04:57:28;95236.16;;;15.17;71.87
33191;BME280;19554;42.652;23.364;2022-10-12T04:59:53;95199.06;;;14.91;71.96
33191;BME280;19554;42.652;23.364;2022-10-12T05:02:19;95178.88;;;14.80;71.96
33191;BME280;19554;42.652;23.364;2022-10-12T05:04:44;95200.03;;;14.96;71.73
33191;BME280;19554;42.652;23.364;2022-10-12T05:07:10;95240.47;;;15.18;71.63
33191;BME280;19554;42.652;23.364;2022-10-12T05:09:35;95244.13;;;15.22;71.99
33191;BME280;19554;42.652;23.364;2022-10-12T05:12:00;95225.13;;;15.05;72.67
33191;BME280;19554;42.652;23.364;2022-10-12T05:14:26;95237.47;;;15.20;72.75
33191;BME280;19554;42.652;23.364;2022-10-12T05:16:51;95095.34;;;14.21;72.33
33191;BME280;19554;42.652;23.364;2022-10-12T05:19:17;95250.13;;;15.19;72.52
33191;BME280;19554;42.652;23.364;2022-10-12T05:21:42;95214.78;;;14.84;73.85
33191;BME280;19554;42.652;23.364;2022-10-12T05:24:07;95251.19;;;14.90;73.81
33191;BME280;19554;42.652;23.364;2022-10-12T05:26:33;95258.34;;;14.54;74.87
33191;BME280;19554;42.652;23.364;2022-10-12T05:28:58;95263.63;;;14.26;76.33
33191;BME280;19554;42.652;23.364;2022-10-12T05:31:24;95223.69;;;13.73;78.09
33191;BME280;19554;42.652;23.364;2022-10-12T05:33:49;95265.09;;;13.86;78.80
33191;BME280;19554;42.652;23.364;2022-10-12T05:36:14;95229.94;;;13.49;79.19
33191;BME280;19554;42.652;23.364;2022-10-12T05:38:40;95246.97;;;13.59;79.58
33191;BME280;19554;42.652;23.364;2022-10-12T05:41:05;95268.81;;;13.71;80.09
33191;BME280;19554;42.652;23.364;2022-10-12T05:43:31;95179.03;;;13.07;80.29
33191;BME280;19554;42.652;23.364;2022-10-12T05:45:57;95271.53;;;13.66;80.60
33191;BME280;19554;42.652;23.364;2022-10-12T05:48:22;95269.44;;;13.63;81.04
33191;BME280;19554;42.652;23.364;2022-10-12T05:50:51;95257.75;;;13.54;80.94
33191;BME280;19554;42.652;23.364;2022-10-12T05:53:16;95281.13;;;13.72;80.81
33191;BME280;19554;42.652;23.364;2022-10-12T05:55:51;95282.13;;;13.76;80.75
33191;BME280;19554;42.652;23.364;2022-10-12T05:58:17;95231.91;;;13.44;80.45
33191;BME280;19554;42.652;23.364;2022-10-12T06:00:42;95243.06;;;13.51;80.47
33191;BME280;19554;42.652;23.364;2022-10-12T06:03:07;95224.91;;;13.43;80.43
33191;BME280;19554;42.652;23.364;2022-10-12T06:05:33;95263.44;;;13.71;80.07
33191;BME280;19554;42.652;23.364;2022-10-12T06:07:58;95274.72;;;13.87;79.79
33191;BME280;19554;42.652;23.364;2022-10-12T06:10:24;95302.13;;;14.03;79.43
33191;BME280;19554;42.652;23.364;2022-10-12T06:12:49;95279.66;;;13.98;78.65
33191;BME280;19554;42.652;23.364;2022-10-12T06:15:14;95263.91;;;13.92;78.25
33191;BME280;19554;42.652;23.364;2022-10-12T06:17:40;95265.09;;;13.86;78.11
33191;BME280;19554;42.652;23.364;2022-10-12T06:20:06;95303.56;;;14.14;78.28
33191;BME280;19554;42.652;23.364;2022-10-12T06:22:31;95282.47;;;14.07;78.41
33191;BME280;19554;42.652;23.364;2022-10-12T06:24:56;95303.25;;;14.34;77.85
33191;BME280;19554;42.652;23.364;2022-10-12T06:27:22;95291.31;;;14.40;76.85
33191;BME280;19554;42.652;23.364;2022-10-12T06:29:49;95271.53;;;14.36;76.36
33191;BME280;19554;42.652;23.364;2022-10-12T06:32:14;95306.94;;;14.71;75.68
33191;BME280;19554;42.652;23.364;2022-10-12T06:34:40;95169.28;;;13.86;75.15
33191;BME280;19554;42.652;23.364;2022-10-12T06:37:05;95247.97;;;14.47;74.72
33191;BME280;19554;42.652;23.364;2022-10-12T06:39:31;95317.22;;;14.97;74.03
33191;BME280;19554;42.652;23.364;2022-10-12T06:41:57;95308.56;;;15.00;73.86
33191;BME280;19554;42.652;23.364;2022-10-12T06:44:23;95301.59;;;14.99;73.47
33191;BME280;19554;42.652;23.364;2022-10-12T06:46:49;95318.31;;;15.23;73.08
33191;BME280;19554;42.652;23.364;2022-10-12T06:49:15;95302.19;;;15.23;72.57
33191;BME280;19554;42.652;23.364;2022-10-12T06:51:41;95240.88;;;14.84;72.21
33191;BME280;19554;42.652;23.364;2022-10-12T06:54:06;95266.66;;;15.12;71.75
33191;BME280;19554;42.652;23.364;2022-10-12T06:56:32;95285.47;;;15.26;71.67
33191;BME280;19554;42.652;23.364;2022-10-12T06:58:57;95280.09;;;15.26;72.05
33191;BME280;19554;42.652;23.364;2022-10-12T07:01:23;95328.09;;;15.47;72.23
33191;BME280;19554;42.652;23.364;2022-10-12T07:03:48;95243.06;;;14.82;72.48
33191;BME280;19554;42.652;23.364;2022-10-12T07:06:14;95298.19;;;15.07;72.97
33191;BME280;19554;42.652;23.364;2022-10-12T07:08:40;95323.59;;;15.01;74.05
33191;BME280;19554;42.652;23.364;2022-10-12T07:11:08;95329.88;;;15.10;74.05
33191;BME280;19554;42.652;23.364;2022-10-12T07:13:34;95329.88;;;15.10;74.19
33191;BME280;19554;42.652;23.364;2022-10-12T07:16:00;95325.09;;;15.21;73.64
33191;BME280;19554;42.652;23.364;2022-10-12T07:18:25;95331.19;;;15.26;73.60
33191;BME280;19554;42.652;23.364;2022-10-12T07:20:51;95322.72;;;15.19;73.55
33191;BME280;19554;42.652;23.364;2022-10-12T07:23:17;95324.69;;;15.27;73.52
33191;BME280;19554;42.652;23.364;2022-10-12T07:25:49;95297.81;;;15.00;73.43
33191;BME280;19554;42.652;23.364;2022-10-12T07:28:15;95276.91;;;14.97;73.18
33191;BME280;19554;42.652;23.364;2022-10-12T07:30:41;95315.31;;;15.11;73.26
33191;BME280;19554;42.652;23.364;2022-10-12T07:33:07;95319.91;;;14.97;74.29
33191;BME280;19554;42.652;23.364;2022-10-12T07:35:32;95333.66;;;15.09;74.06
33191;BME280;19554;42.652;23.364;2022-10-12T07:37:58;95302.88;;;14.87;73.55
33191;BME280;19554;42.652;23.364;2022-10-12T07:40:23;95337.84;;;15.15;73.77
33191;BME280;19554;42.652;23.364;2022-10-12T07:42:51;95337.16;;;15.23;73.49
33191;BME280;19554;42.652;23.364;2022-10-12T07:45:16;95309.56;;;15.04;73.60
33191;BME280;19554;42.652;23.364;2022-10-12T07:47:41;95330.47;;;15.34;73.16
33191;BME280;19554;42.652;23.364;2022-10-12T07:50:07;95305.59;;;15.15;72.54
33191;BME280;19554;42.652;23.364;2022-10-12T07:52:34;95266.66;;;14.99;71.37
33191;BME280;19554;42.652;23.364;2022-10-12T07:54:59;95339.44;;;15.44;71.42
33191;BME280;19554;42.652;23.364;2022-10-12T07:57:24;95346.00;;;15.37;72.24
33191;BME280;19554;42.652;23.364;2022-10-12T07:59:50;95315.56;;;15.28;71.93
33191;BME280;19554;42.652;23.364;2022-10-12T08:02:15;95338.06;;;15.46;71.62
33191;BME280;19554;42.652;23.364;2022-10-12T08:04:40;95324.69;;;15.41;71.22
33191;BME280;19554;42.652;23.364;2022-10-12T08:07:06;95283.97;;;15.20;71.36
33191;BME280;19554;42.652;23.364;2022-10-12T08:09:31;95284.38;;;15.13;71.57
33191;BME280;19554;42.652;23.364;2022-10-12T08:12:00;95229.09;;;14.80;71.84
33191;BME280;19554;42.652;23.364;2022-10-12T08:14:25;95253.28;;;14.93;72.10
33191;BME280;19554;42.652;23.364;2022-10-12T08:16:51;95283.28;;;15.14;70.87
33191;BME280;19554;42.652;23.364;2022-10-12T08:19:16;95317.91;;;15.44;70.53
33191;BME280;19554;42.652;23.364;2022-10-12T08:21:42;95338.13;;;15.55;70.36
33191;BME280;19554;42.652;23.364;2022-10-12T08:24:08;95339.44;;;15.44;70.36
33191;BME280;19554;42.652;23.364;2022-10-12T08:26:34;95339.84;;;15.37;69.88
33191;BME280;19554;42.652;23.364;2022-10-12T08:29:04;95340.25;;;15.30;70.60
33191;BME280;19554;42.652;23.364;2022-10-12T08:31:30;95341.63;;;15.28;70.79
33191;BME280;19554;42.652;23.364;2022-10-12T08:33:56;95301.59;;;14.99;71.13
33191;BME280;19554;42.652;23.364;2022-10-12T08:36:22;95318.50;;;14.85;71.79
33191;BME280;19554;42.652;23.364;2022-10-12T08:38:51;95303.16;;;14.72;72.13
33191;BME280;19554;42.652;23.364;2022-10-12T08:41:28;95344.03;;;15.02;71.86
33191;BME280;19554;42.652;23.364;2022-10-12T08:46:37;95338.41;;;14.84;73.26
33191;BME280;19554;42.652;23.364;2022-10-12T08:49:09;95347.66;;;14.78;73.54
33191;BME280;19554;42.652;23.364;2022-10-12T08:51:46;95296.75;;;14.54;73.38
33191;BME280;19554;42.652;23.364;2022-10-12T08:54:14;95294.56;;;14.56;73.22
33191;BME280;19554;42.652;23.364;2022-10-12T08:56:42;95288.38;;;14.56;73.40
33191;BME280;19554;42.652;23.364;2022-10-12T08:59:11;95337.94;;;14.96;73.32
33191;BME280;19554;42.652;23.364;2022-10-12T09:02:04;95329.59;;;14.98;73.44
33191;BME280;19554;42.652;23.364;2022-10-12T09:04:51;95337.47;;;15.08;73.46
33191;BME280;19554;42.652;23.364;2022-10-12T09:07:34;95342.59;;;14.90;73.38
33191;BME280;19554;42.652;23.364;2022-10-12T09:10:17;95346.78;;;14.97;73.35
33191;BME280;19554;42.652;23.364;2022-10-12T09:15:34;95340.97;;;14.76;74.74
33191;BME280;19554;42.652;23.364;2022-10-12T09:18:04;95306.91;;;14.57;74.98
33191;BME280;19554;42.652;23.364;2022-10-12T09:20:45;95321.69;;;14.74;75.26
33191;BME280;19554;42.652;23.364;2022-10-12T09:23:22;95344.28;;;14.86;75.26
33191;BME280;19554;42.652;23.364;2022-10-12T09:25:48;95343.22;;;14.87;75.59
33191;BME280;19554;42.652;23.364;2022-10-12T09:28:36;95349.59;;;14.91;75.17
33191;BME280;19554;42.652;23.364;2022-10-12T09:33:42;95297.03;;;14.53;76.06
33191;BME280;19554;42.652;23.364;2022-10-12T09:36:11;95300.97;;;14.60;76.14
33191;BME280;19554;42.652;23.364;2022-10-12T09:38:40;95338.19;;;14.67;77.29
33191;BME280;19554;42.652;23.364;2022-10-12T09:41:15;95307.22;;;14.37;77.46
33191;BME280;19554;42.652;23.364;2022-10-12T09:43:44;95186.72;;;13.70;76.52
33191;BME280;19554;42.652;23.364;2022-10-12T09:46:13;95342.97;;;14.70;75.97
33191;BME280;19554;42.652;23.364;2022-10-12T09:48:56;95345.50;;;14.80;75.61
33191;BME280;19554;42.652;23.364;2022-10-12T09:51:22;95335.78;;;14.65;75.98
33191;BME280;19554;42.652;23.364;2022-10-12T09:53:48;95301.81;;;14.56;76.57
33191;BME280;19554;42.652;23.364;2022-10-12T09:56:27;95318.69;;;14.75;75.88
33191;BME280;19554;42.652;23.364;2022-10-12T09:59:06;95331.63;;;14.73;75.72
33191;BME280;19554;42.652;23.364;2022-10-12T10:01:41;95330.13;;;14.67;75.95
33191;BME280;19554;42.652;23.364;2022-10-12T10:04:24;95337.91;;;14.82;75.68
33191;BME280;19554;42.652;23.364;2022-10-12T10:06:51;95220.47;;;14.22;75.59
33191;BME280;19554;42.652;23.364;2022-10-12T10:09:26;95328.06;;;14.91;75.95
33191;BME280;19554;42.652;23.364;2022-10-12T10:11:52;95280.88;;;14.72;75.83
33191;BME280;19554;42.652;23.364;2022-10-12T10:14:18;95326.59;;;15.13;75.66
33191;BME280;19554;42.652;23.364;2022-10-12T10:16:48;95325.09;;;15.34;74.57
33191;BME280;19554;42.652;23.364;2022-10-12T10:19:20;95326.88;;;15.53;73.65
33191;BME280;19554;42.652;23.364;2022-10-12T10:21:49;95321.88;;;15.60;72.88
33191;BME280;19554;42.652;23.364;2022-10-12T10:24:27;95318.50;;;15.68;72.37
33191;BME280;19554;42.652;23.364;2022-10-12T10:26:55;95231.88;;;15.16;72.24
33191;BME280;19554;42.652;23.364;2022-10-12T10:29:25;95317.31;;;15.74;71.90
33191;BME280;19554;42.652;23.364;2022-10-12T10:34:36;95302.75;;;15.48;72.04
33191;BME280;19554;42.652;23.364;2022-10-12T10:37:03;95303.34;;;15.58;72.01
33191;BME280;19554;42.652;23.364;2022-10-12T10:39:38;95251.47;;;15.30;70.94
33191;BME280;19554;42.652;23.364;2022-10-12T10:42:21;95259.34;;;15.40;70.70
33191;BME280;19554;42.652;23.364;2022-10-12T10:44:51;95200.72;;;15.15;70.54
33191;BME280;19554;42.652;23.364;2022-10-12T10:47:17;95302.41;;;15.91;70.53
33191;BME280;19554;42.652;23.364;2022-10-12T10:50:03;95296.53;;;15.88;70.70
33191;BME280;19554;42.652;23.364;2022-10-12T10:52:32;95285.53;;;15.99;69.71
33191;BME280;19554;42.652;23.364;2022-10-12T10:55:19;95284.91;;;16.02;69.39
33191;BME280;19554;42.652;23.364;2022-10-12T10:57:48;95269.75;;;15.83;69.76
33191;BME280;19554;42.652;23.364;2022-10-12T11:00:20;95282.97;;;15.94;70.12
33191;BME280;19554;42.652;23.364;2022-10-12T11:02:56;95266.44;;;15.86;70.22
33191;BME280;19554;42.652;23.364;2022-10-12T11:05:35;95281.34;;;15.93;70.62
33191;BME280;19554;42.652;23.364;2022-10-12T11:08:11;95289.56;;;15.87;70.51
33191;BME280;19554;42.652;23.364;2022-10-12T11:10:49;95287.25;;;15.95;70.46
33191;BME280;19554;42.652;23.364;2022-10-12T11:13:21;95263.13;;;15.90;69.93
33191;BME280;19554;42.652;23.364;2022-10-12T11:15:51;95246.94;;;15.67;69.25
33191;BME280;19554;42.652;23.364;2022-10-12T11:23:51;95275.31;;;16.09;67.85
33191;BME280;19554;42.652;23.364;2022-10-12T11:26:39;95246.97;;;15.90;67.59
33191;BME280;19554;42.652;23.364;2022-10-12T11:29:10;95266.38;;;16.00;68.04
33191;BME280;19554;42.652;23.364;2022-10-12T11:31:38;95265.31;;;16.10;68.02
33191;BME280;19554;42.652;23.364;2022-10-12T11:34:14;95261.13;;;16.18;68.05
33191;BME280;19554;42.652;23.364;2022-10-12T11:36:43;95223.84;;;15.66;68.05
33191;BME280;19554;42.652;23.364;2022-10-12T11:39:18;95242.22;;;15.86;67.80
33191;BME280;19554;42.652;23.364;2022-10-12T11:41:48;95255.09;;;15.62;68.41
33191;BME280;19554;42.652;23.364;2022-10-12T11:44:23;95253.31;;;15.71;68.90
33191;BME280;19554;42.652;23.364;2022-10-12T11:47:03;95263.25;;;15.84;68.41
33191;BME280;19554;42.652;23.364;2022-10-12T11:52:09;95247.84;;;15.76;68.32
33191;BME280;19554;42.652;23.364;2022-10-12T11:57:32;95244.03;;;16.00;67.72
33191;BME280;19554;42.652;23.364;2022-10-12T12:00:04;95255.56;;;16.14;66.76
33191;BME280;19554;42.652;23.364;2022-10-12T12:02:41;95238.03;;;16.03;66.76
33191;BME280;19554;42.652;23.364;2022-10-12T12:05:14;95251.38;;;16.08;67.24
33191;BME280;19554;42.652;23.364;2022-10-12T12:07:53;95258.72;;;16.16;66.83
33191;BME280;19554;42.652;23.364;2022-10-12T12:28:36;95254.69;;;16.27;66.61
33191;BME280;19554;42.652;23.364;2022-10-12T12:33:36;95244.91;;;16.31;66.95
33191;BME280;19554;42.652;23.364;2022-10-12T12:36:31;95242.56;;;16.16;67.41
33191;BME280;19554;42.652;23.364;2022-10-12T12:38:57;95251.50;;;16.25;67.31
33191;BME280;19554;42.652;23.364;2022-10-12T12:49:57;95252.38;;;16.34;67.11
33191;BME280;19554;42.652;23.364;2022-10-12T12:52:31;95256.63;;;16.35;66.64
33191;BME280;19554;42.652;23.364;2022-10-12T13:00:21;95251.53;;;16.56;65.92
33191;BME280;19554;42.652;23.364;2022-10-12T13:03:07;95257.59;;;16.62;65.47
33191;BME280;19554;42.652;23.364;2022-10-12T13:11:51;95260.63;;;16.69;65.88
33191;BME280;19554;42.652;23.364;2022-10-12T13:20:03;95263.84;;;16.26;66.80
33191;BME280;19554;42.652;23.364;2022-10-12T13:22:33;95258.47;;;16.26;67.09
33191;BME280;19554;42.652;23.364;2022-10-12T13:25:05;95257.88;;;16.29;67.42
33191;BME280;19554;42.652;23.364;2022-10-12T13:27:39;95257.78;;;16.43;67.08
33191;BME280;19554;42.652;23.364;2022-10-12T13:41:05;95258.97;;;16.82;64.69
33191;BME280;19554;42.652;23.364;2022-10-12T13:43:51;95266.13;;;16.87;64.44
33191;BME280;19554;42.652;23.364;2022-10-12T13:46:43;95260.91;;;16.90;64.68
33191;BME280;19554;42.652;23.364;2022-10-12T13:49:21;95262.16;;;16.84;64.70
33191;BME280;19554;42.652;23.364;2022-10-12T13:51:52;95250.59;;;16.61;65.08
33191;BME280;19554;42.652;23.364;2022-10-12T13:54:37;95263.44;;;16.64;65.65
33191;BME280;19554;42.652;23.364;2022-10-12T13:57:27;95252.03;;;16.67;65.80
33191;BME280;19554;42.652;23.364;2022-10-12T13:59:59;95211.50;;;16.41;66.31
33191;BME280;19554;42.652;23.364;2022-10-12T14:02:27;95261.88;;;16.63;66.23
33191;BME280;19554;42.652;23.364;2022-10-12T14:04:55;95253.00;;;16.71;66.30
33191;BME280;19554;42.652;23.364;2022-10-12T14:07:30;95245.25;;;16.70;65.74
33191;BME280;19554;42.652;23.364;2022-10-12T14:10:03;95237.84;;;16.75;65.99
33191;BME280;19554;42.652;23.364;2022-10-12T14:12:30;95253.50;;;16.73;65.82
33191;BME280;19554;42.652;23.364;2022-10-12T14:14:57;95245.19;;;16.61;65.70
33191;BME280;19554;42.652;23.364;2022-10-12T14:17:23;95254.53;;;16.55;66.38
33191;BME280;19554;42.652;23.364;2022-10-12T14:19:51;95254.09;;;16.62;65.61
33191;BME280;19554;42.652;23.364;2022-10-12T14:22:26;95253.63;;;16.68;65.84
33191;BME280;19554;42.652;23.364;2022-10-12T14:27:32;95236.28;;;16.52;65.94
33191;BME280;19554;42.652;23.364;2022-10-12T14:30:20;95257.22;;;16.55;65.90
33191;BME280;19554;42.652;23.364;2022-10-12T14:32:47;95260.66;;;16.47;66.16
33191;BME280;19554;42.652;23.364;2022-10-12T14:35:20;95229.16;;;16.25;66.57
33191;BME280;19554;42.652;23.364;2022-10-12T14:37:47;95258.56;;;16.44;66.64
33191;BME280;19554;42.652;23.364;2022-10-12T14:40:37;95228.56;;;16.28;66.48
33191;BME280;19554;42.652;23.364;2022-10-12T14:45:37;95255.84;;;16.35;66.65